Time;durP1;ratioP1;P1;durP2;ratioP2;P2;SDS_P1;SDS_P2;PMS_P1;PMS_P2;Temp;Humidity;BMP_temperature;BMP_pressure;BME280_temperature;BME280_humidity;BME280_pressure;Samples;Min_cycle;Max_cycle;Signal;HPM_P1;HPM_P2
2022/08/07 00:02:36;;;;;;;6.32;3.30;;;;;;;;;;5132338;27;20464;-62
2022/08/07 00:05:03;;;;;;;5.55;3.53;;;;;;;;;;5132242;28;20031;-62
2022/08/07 00:07:29;;;;;;;6.28;3.33;;;;;;;;;;5131319;28;20034;-63
2022/08/07 00:12:07;;;;;;;5.28;3.47;;;;;;;;;;5071041;28;20392;-62
2022/08/07 00:16:42;;;;;;;6.57;2.97;;;;;;;;;;5112021;27;20418;-62
2022/08/07 00:19:09;;;;;;;5.20;2.95;;;;;;;;;;5110055;28;20036;-62
2022/08/07 00:21:35;;;;;;;4.65;2.83;;;;;;;;;;5110925;28;20073;-63
2022/08/07 00:25:04;;;;;;;5.47;3.45;;;;;;;;;;5112135;27;20442;-62
2022/08/07 00:27:31;;;;;;;6.68;3.75;;;;;;;;;;5111359;28;20031;-62
2022/08/07 00:29:57;;;;;;;6.38;3.33;;;;;;;;;;5110933;28;20026;-63
2022/08/07 00:33:04;;;;;;;5.57;3.33;;;;;;;;;;5111502;27;20384;-63
2022/08/07 00:35:31;;;;;;;4.55;2.92;;;;;;;;;;5110936;28;20466;-62
2022/08/07 00:37:58;;;;;;;6.03;2.80;;;;;;;;;;5109969;28;20051;-63
2022/08/07 00:40:24;;;;;;;5.22;3.30;;;;;;;;;;5110058;28;20030;-62
2022/08/07 00:42:50;;;;;;;7.13;3.63;;;;;;;;;;5110849;28;20077;-63
2022/08/07 00:45:16;;;;;;;5.28;3.50;;;;;;;;;;5111176;28;20102;-62
2022/08/07 00:47:42;;;;;;;5.65;3.53;;;;;;;;;;5109895;28;20031;-62
2022/08/07 00:50:09;;;;;;;5.30;3.28;;;;;;;;;;5110702;28;20016;-63
2022/08/07 00:53:12;;;;;;;5.03;3.50;;;;;;;;;;5111471;27;20458;-62
2022/08/07 00:56:35;;;;;;;7.40;3.78;;;;;;;;;;5111397;27;20803;-62
2022/08/07 00:59:49;;;;;;;4.78;3.17;;;;;;;;;;5111743;27;20455;-62
2022/08/07 01:02:15;;;;;;;8.40;3.78;;;;;;;;;;5111384;28;20051;-62
2022/08/07 01:04:41;;;;;;;7.05;3.42;;;;;;;;;;5109748;28;20388;-62
2022/08/07 01:07:07;;;;;;;5.82;3.65;;;;;;;;;;5111464;28;20081;-62
2022/08/07 01:09:44;;;;;;;5.32;3.30;;;;;;;;;;5111384;27;20392;-62
2022/08/07 01:13:40;;;;;;;5.70;3.67;;;;;;;;;;5112190;27;20896;-63
2022/08/07 01:19:13;;;;;;;5.65;3.58;;;;;;;;;;5110905;27;20408;-63
2022/08/07 01:21:40;;;;;;;5.90;3.30;;;;;;;;;;5109983;28;20031;-62
2022/08/07 01:24:37;;;;;;;5.07;3.45;;;;;;;;;;5111155;27;20465;-61
2022/08/07 01:27:03;;;;;;;6.47;3.50;;;;;;;;;;5111502;28;20073;-62
2022/08/07 01:29:30;;;;;;;6.57;3.78;;;;;;;;;;5127096;28;20433;-63
2022/08/07 01:31:56;;;;;;;7.22;4.20;;;;;;;;;;5126627;28;20019;-63
2022/08/07 01:34:22;;;;;;;6.22;3.30;;;;;;;;;;5111255;28;20073;-63
2022/08/07 01:36:49;;;;;;;5.70;3.50;;;;;;;;;;5111132;28;20024;-63
2022/08/07 01:42:43;;;;;;;5.47;3.58;;;;;;;;;;5092107;27;20402;-62
2022/08/07 01:45:09;;;;;;;6.55;3.83;;;;;;;;;;5090558;28;20028;-62
2022/08/07 01:47:35;;;;;;;4.53;3.10;;;;;;;;;;5090925;28;20020;-63
2022/08/07 01:50:01;;;;;;;6.00;3.72;;;;;;;;;;5091151;28;20086;-62
2022/08/07 01:52:29;;;;;;;5.60;3.40;;;;;;;;;;5090711;28;20043;-63
2022/08/07 01:54:55;;;;;;;5.20;3.30;;;;;;;;;;5089511;28;20024;-63
2022/08/07 02:00:15;;;;;;;5.00;3.30;;;;;;;;;;5111225;27;20393;-63
2022/08/07 02:02:52;;;;;;;5.57;3.70;;;;;;;;;;5110085;28;20051;-63
2022/08/07 02:05:39;;;;;;;6.78;3.30;;;;;;;;;;5111546;28;20027;-62
2022/08/07 02:08:07;;;;;;;6.35;3.60;;;;;;;;;;5110866;28;20031;-63
2022/08/07 02:10:34;;;;;;;5.25;3.25;;;;;;;;;;5111216;28;20081;-62
2022/08/07 02:16:44;;;;;;;6.05;3.55;;;;;;;;;;5112165;27;20908;-62
2022/08/07 02:19:11;;;;;;;5.93;3.97;;;;;;;;;;5110002;28;20085;-63
2022/08/07 02:21:38;;;;;;;6.82;3.80;;;;;;;;;;5110866;28;20077;-63
2022/08/07 02:25:08;;;;;;;4.93;3.40;;;;;;;;;;5111369;27;20981;-63
2022/08/07 02:27:50;;;;;;;6.70;3.47;;;;;;;;;;5111121;27;20400;-62
2022/08/07 02:30:16;;;;;;;6.18;3.08;;;;;;;;;;5110053;28;20077;-63
2022/08/07 02:33:51;;;;;;;5.57;3.25;;;;;;;;;;5091838;27;20402;-62
2022/08/07 02:36:18;;;;;;;5.38;3.47;;;;;;;;;;5090596;28;20056;-62
2022/08/07 02:40:47;;;;;;;11.95;4.32;;;;;;;;;;5112216;27;20392;-63
2022/08/07 02:43:15;;;;;;;6.50;3.88;;;;;;;;;;5110959;28;20032;-63
2022/08/07 02:45:43;;;;;;;6.38;4.00;;;;;;;;;;5111286;28;20043;-62
2022/08/07 02:48:09;;;;;;;5.70;3.88;;;;;;;;;;5127055;28;20488;-63
2022/08/07 02:51:48;;;;;;;5.97;3.65;;;;;;;;;;5111672;27;20385;-62
2022/08/07 02:54:15;;;;;;;6.13;3.88;;;;;;;;;;5111449;28;20494;-62
2022/08/07 02:58:23;;;;;;;6.53;3.10;;;;;;;;;;5112191;27;20730;-62
2022/08/07 03:00:50;;;;;;;5.22;3.40;;;;;;;;;;5111381;28;20020;-63
2022/08/07 03:03:18;;;;;;;6.68;3.72;;;;;;;;;;5126790;28;20027;-63
2022/08/07 03:06:47;;;;;;;8.35;3.65;;;;;;;;;;5111542;27;20392;-63
2022/08/07 03:09:14;;;;;;;7.43;4.07;;;;;;;;;;5110055;28;20027;-62
2022/08/07 03:11:41;;;;;;;7.22;3.80;;;;;;;;;;5110885;28;20020;-63
2022/08/07 03:14:07;;;;;;;4.70;3.38;;;;;;;;;;5110262;28;20061;-64
2022/08/07 03:17:32;;;;;;;5.55;3.75;;;;;;;;;;5111188;27;20396;-62
2022/08/07 03:21:16;;;;;;;5.53;3.63;;;;;;;;;;5111646;27;20420;-62
2022/08/07 03:27:57;;;;;;;4.57;3.28;;;;;;;;;;5111400;27;20819;-62
2022/08/07 03:32:58;;;;;;;6.95;4.43;;;;;;;;;;5111783;27;20389;-62
2022/08/07 03:36:47;;;;;;;6.25;4.15;;;;;;;;;;5111577;27;20426;-64
2022/08/07 03:39:15;;;;;;;5.97;3.55;;;;;;;;;;5110912;28;20032;-62
2022/08/07 03:41:41;;;;;;;7.57;4.43;;;;;;;;;;5109998;28;20484;-64
2022/08/07 03:44:08;;;;;;;6.28;3.92;;;;;;;;;;5111250;28;20022;-62
2022/08/07 03:50:07;;;;;;;7.78;4.45;;;;;;;;;;5111339;27;20752;-62
2022/08/07 03:52:34;;;;;;;6.80;4.15;;;;;;;;;;5110993;28;20051;-62
2022/08/07 03:57:02;;;;;;;5.85;3.85;;;;;;;;;;5111828;27;20424;-64
2022/08/07 03:59:28;;;;;;;5.88;3.33;;;;;;;;;;5110922;28;20020;-62
2022/08/07 04:04:51;;;;;;;6.63;3.72;;;;;;;;;;5112176;27;20396;-64
2022/08/07 04:07:20;;;;;;;5.88;3.58;;;;;;;;;;5109661;28;20502;-62
2022/08/07 04:10:05;;;;;;;6.93;4.05;;;;;;;;;;5111514;27;20388;-62
2022/08/07 04:12:32;;;;;;;7.32;3.80;;;;;;;;;;5111386;28;20454;-64
2022/08/07 04:16:37;;;;;;;6.57;3.95;;;;;;;;;;5111530;27;20119;-62
2022/08/07 04:19:04;;;;;;;5.72;3.55;;;;;;;;;;5111425;28;20490;-62
2022/08/07 04:22:31;;;;;;;6.78;4.03;;;;;;;;;;5112098;27;20702;-63
2022/08/07 04:26:08;;;;;;;7.88;4.18;;;;;;;;;;5111960;27;20124;-62
2022/08/07 04:28:34;;;;;;;8.05;4.00;;;;;;;;;;5110887;28;20028;-62
2022/08/07 04:31:00;;;;;;;7.07;4.05;;;;;;;;;;5111298;28;20471;-63
2022/08/07 04:33:26;;;;;;;5.43;3.30;;;;;;;;;;5111233;28;20106;-62
2022/08/07 04:35:53;;;;;;;5.85;3.70;;;;;;;;;;5110803;28;20095;-63
2022/08/07 04:38:19;;;;;;;6.72;3.72;;;;;;;;;;5109903;28;20069;-62
2022/08/07 04:42:56;;;;;;;6.65;3.80;;;;;;;;;;5091331;27;20431;-63
2022/08/07 04:45:24;;;;;;;7.18;3.95;;;;;;;;;;5106730;28;20089;-63
2022/08/07 04:49:38;;;;;;;5.75;3.70;;;;;;;;;;5111083;27;20393;-62
2022/08/07 04:52:14;;;;;;;9.48;6.10;;;;;;;;;;5111434;28;20024;-63
2022/08/07 04:54:40;;;;;;;7.53;5.20;;;;;;;;;;5111448;28;20023;-63
2022/08/07 04:57:24;;;;;;;6.65;4.30;;;;;;;;;;5109571;28;20020;-62
2022/08/07 05:01:35;;;;;;;7.30;4.35;;;;;;;;;;5112201;27;20477;-64
2022/08/07 05:04:14;;;;;;;6.35;4.03;;;;;;;;;;5111039;28;20024;-63
2022/08/07 05:06:44;;;;;;;6.78;3.92;;;;;;;;;;5111500;28;20050;-63
2022/08/07 05:09:16;;;;;;;6.30;4.30;;;;;;;;;;5126739;28;20020;-63
2022/08/07 05:11:46;;;;;;;8.07;4.40;;;;;;;;;;5111467;28;20028;-63
2022/08/07 05:15:36;;;;;;;6.40;3.53;;;;;;;;;;5111631;27;20396;-63
2022/08/07 05:18:11;;;;;;;8.75;4.75;;;;;;;;;;5109638;28;20491;-63
2022/08/07 05:20:46;;;;;;;6.72;4.15;;;;;;;;;;5111230;28;20032;-63
2022/08/07 05:23:27;;;;;;;6.70;4.60;;;;;;;;;;5110842;28;20028;-64
2022/08/07 05:25:54;;;;;;;6.72;4.20;;;;;;;;;;5111538;28;20028;-63
2022/08/07 05:30:19;;;;;;;6.85;4.50;;;;;;;;;;5111128;27;20135;-62
2022/08/07 05:32:46;;;;;;;6.50;4.20;;;;;;;;;;5111400;28;20099;-63
2022/08/07 05:35:13;;;;;;;6.88;4.18;;;;;;;;;;5111372;28;20041;-62
2022/08/07 05:37:40;;;;;;;5.03;3.60;;;;;;;;;;5109317;28;20472;-63
2022/08/07 05:40:46;;;;;;;5.80;3.88;;;;;;;;;;5111792;27;20900;-64
2022/08/07 05:43:12;;;;;;;6.75;4.07;;;;;;;;;;5110015;28;20028;-62
2022/08/07 05:45:40;;;;;;;9.48;4.68;;;;;;;;;;5110938;28;20103;-64
2022/08/07 05:48:06;;;;;;;7.53;4.72;;;;;;;;;;5109966;28;20034;-64
2022/08/07 05:50:33;;;;;;;7.53;4.15;;;;;;;;;;5110914;28;20122;-64
2022/08/07 05:53:00;;;;;;;8.98;4.63;;;;;;;;;;5110717;28;20460;-64
2022/08/07 05:55:26;;;;;;;6.40;4.45;;;;;;;;;;5109836;28;20081;-64
2022/08/07 05:58:30;;;;;;;6.10;3.95;;;;;;;;;;5111046;27;20849;-63
2022/08/07 06:00:57;;;;;;;5.72;3.95;;;;;;;;;;5111321;28;20026;-64
2022/08/07 06:03:23;;;;;;;8.57;5.70;;;;;;;;;;5111593;28;20102;-63
2022/08/07 06:05:50;;;;;;;9.68;5.38;;;;;;;;;;5111090;28;20024;-63
2022/08/07 06:08:16;;;;;;;8.50;4.45;;;;;;;;;;5127006;28;20361;-65
2022/08/07 06:10:43;;;;;;;8.55;4.43;;;;;;;;;;5111179;28;20024;-64
2022/08/07 06:13:10;;;;;;;8.18;4.72;;;;;;;;;;5110737;28;20480;-63
2022/08/07 06:15:36;;;;;;;8.80;4.25;;;;;;;;;;5111085;28;20035;-63
2022/08/07 06:18:03;;;;;;;6.85;4.25;;;;;;;;;;5110926;28;20032;-62
2022/08/07 06:22:34;;;;;;;6.70;4.68;;;;;;;;;;5111450;27;21052;-63
2022/08/07 06:28:09;;;;;;;5.97;3.95;;;;;;;;;;5111231;27;20408;-63
2022/08/07 06:32:04;;;;;;;7.53;4.45;;;;;;;;;;5112146;27;20753;-63
2022/08/07 06:34:30;;;;;;;6.75;4.20;;;;;;;;;;5110961;28;20468;-62
2022/08/07 06:36:56;;;;;;;9.07;4.45;;;;;;;;;;5109959;28;20028;-62
2022/08/07 06:39:22;;;;;;;9.05;4.38;;;;;;;;;;5111412;28;20024;-62
2022/08/07 06:41:53;;;;;;;7.50;4.57;;;;;;;;;;5109469;28;20024;-63
2022/08/07 06:44:20;;;;;;;6.35;4.35;;;;;;;;;;5111172;28;20024;-64
2022/08/07 06:47:07;;;;;;;7.10;4.38;;;;;;;;;;5051624;28;20423;-62
2022/08/07 06:49:33;;;;;;;7.38;4.13;;;;;;;;;;5049174;28;20031;-62
2022/08/07 06:52:01;;;;;;;8.32;5.40;;;;;;;;;;5050880;28;20029;-63
2022/08/07 06:55:55;;;;;;;7.32;4.30;;;;;;;;;;5111194;27;20397;-62
2022/08/07 06:58:22;;;;;;;4.60;3.60;;;;;;;;;;5110017;28;20456;-62
2022/08/07 07:00:49;;;;;;;7.10;4.38;;;;;;;;;;5111414;28;20103;-63
2022/08/07 07:03:15;;;;;;;7.70;4.32;;;;;;;;;;5109646;28;20391;-64
2022/08/07 07:06:22;;;;;;;8.15;4.72;;;;;;;;;;5153065;27;20390;-64
2022/08/07 07:08:48;;;;;;;7.22;4.47;;;;;;;;;;5151524;27;20019;-64
2022/08/07 07:11:14;;;;;;;6.47;4.00;;;;;;;;;;5152770;27;20106;-63
2022/08/07 07:13:44;;;;;;;8.65;4.50;;;;;;;;;;5151218;27;20439;-63
2022/08/07 07:16:18;;;;;;;7.53;4.63;;;;;;;;;;5151943;27;20015;-62
2022/08/07 07:18:55;;;;;;;8.93;4.80;;;;;;;;;;5152651;27;20031;-63
2022/08/07 07:21:23;;;;;;;7.18;4.38;;;;;;;;;;5151018;27;20026;-63
2022/08/07 07:25:38;;;;;;;6.70;3.97;;;;;;;;;;5111475;27;20420;-62
2022/08/07 07:28:11;;;;;;;6.25;4.03;;;;;;;;;;5111354;28;20383;-62
2022/08/07 07:31:54;;;;;;;6.32;4.25;;;;;;;;;;5110867;27;20908;-62
2022/08/07 07:34:29;;;;;;;7.93;4.88;;;;;;;;;;5111384;28;20039;-62
2022/08/07 07:36:56;;;;;;;11.00;5.50;;;;;;;;;;5110869;28;20019;-62
2022/08/07 07:39:23;;;;;;;6.40;4.18;;;;;;;;;;5111431;28;20024;-64
2022/08/07 07:41:50;;;;;;;7.65;4.55;;;;;;;;;;5111197;28;20077;-62
2022/08/07 07:44:17;;;;;;;8.25;4.97;;;;;;;;;;5110774;28;20051;-62
2022/08/07 07:46:44;;;;;;;8.63;5.07;;;;;;;;;;5111116;28;20024;-63
2022/08/07 07:49:13;;;;;;;10.05;4.50;;;;;;;;;;5109798;28;20107;-63
2022/08/07 07:51:41;;;;;;;7.50;4.30;;;;;;;;;;5110564;28;20106;-63
2022/08/07 07:54:08;;;;;;;6.43;4.07;;;;;;;;;;5111507;28;20024;-63
2022/08/07 07:56:34;;;;;;;6.65;4.60;;;;;;;;;;5110931;28;20061;-63
2022/08/07 07:59:04;;;;;;;7.53;4.50;;;;;;;;;;5109155;28;20384;-64
2022/08/07 08:01:31;;;;;;;7.45;4.30;;;;;;;;;;5110799;28;20028;-64
2022/08/07 08:03:59;;;;;;;6.80;4.13;;;;;;;;;;5110767;28;20024;-64
2022/08/07 08:06:26;;;;;;;6.82;4.15;;;;;;;;;;5110459;28;20424;-64
2022/08/07 08:08:52;;;;;;;10.18;4.18;;;;;;;;;;5109403;28;20111;-63
2022/08/07 08:11:20;;;;;;;11.02;4.90;;;;;;;;;;5109318;28;20400;-62
2022/08/07 08:13:49;;;;;;;7.53;3.95;;;;;;;;;;5110245;28;20383;-62
2022/08/07 08:16:18;;;;;;;6.72;3.92;;;;;;;;;;5110590;28;20098;-62
2022/08/07 08:18:44;;;;;;;9.93;4.78;;;;;;;;;;5110450;28;20024;-64
2022/08/07 08:27:03;;;;;;;7.82;4.05;;;;;;;;;;5110034;28;20046;-63
2022/08/07 08:27:04;;;;;;;7.00;4.45;;;;;;;;;;5109979;28;20030;-63
2022/08/07 08:29:56;;;;;;;6.82;4.18;;;;;;;;;;5109077;28;20016;-63
2022/08/07 08:32:27;;;;;;;8.75;4.28;;;;;;;;;;5107191;28;20055;-63
2022/08/07 08:35:33;;;;;;;7.53;3.83;;;;;;;;;;5112157;27;20816;-63
2022/08/07 08:38:01;;;;;;;7.70;4.35;;;;;;;;;;5111294;28;20106;-63
2022/08/07 08:40:41;;;;;;;7.20;4.45;;;;;;;;;;5110910;28;20047;-63
2022/08/07 08:43:42;;;;;;;7.53;3.88;;;;;;;;;;5111693;27;20795;-63
2022/08/07 08:46:11;;;;;;;9.30;4.82;;;;;;;;;;5107290;28;20039;-63
2022/08/07 08:48:46;;;;;;;8.52;4.25;;;;;;;;;;5110926;28;20430;-63
2022/08/07 08:51:24;;;;;;;6.95;4.25;;;;;;;;;;5111743;28;20372;-63
2022/08/07 08:54:00;;;;;;;7.55;4.70;;;;;;;;;;5127091;28;20468;-65
2022/08/07 08:56:47;;;;;;;7.07;3.70;;;;;;;;;;5111151;28;20028;-63
2022/08/07 08:59:13;;;;;;;6.93;4.28;;;;;;;;;;5126953;28;20031;-63
2022/08/07 09:01:44;;;;;;;7.47;4.22;;;;;;;;;;5110534;28;20480;-63
2022/08/07 09:04:17;;;;;;;5.93;3.72;;;;;;;;;;5126936;28;20073;-63
2022/08/07 09:06:52;;;;;;;10.05;4.15;;;;;;;;;;5111149;28;20020;-63
2022/08/07 09:09:28;;;;;;;5.45;3.75;;;;;;;;;;5110474;28;20104;-63
2022/08/07 09:11:58;;;;;;;9.20;3.85;;;;;;;;;;5110955;28;20027;-63
2022/08/07 09:14:31;;;;;;;5.32;3.83;;;;;;;;;;5126713;28;20020;-63
2022/08/07 09:17:02;;;;;;;6.97;3.50;;;;;;;;;;5110416;28;20468;-64
2022/08/07 09:19:28;;;;;;;6.85;3.03;;;;;;;;;;5110792;28;20054;-63
2022/08/07 09:22:13;;;;;;;5.20;3.15;;;;;;;;;;5110824;28;20099;-64
2022/08/07 09:24:40;;;;;;;5.28;2.63;;;;;;;;;;5110583;28;20023;-64
2022/08/07 09:27:21;;;;;;;6.25;3.35;;;;;;;;;;5126427;28;20047;-64
2022/08/07 09:29:53;;;;;;;4.78;3.08;;;;;;;;;;5110352;28;20107;-64
2022/08/07 09:32:25;;;;;;;5.55;3.45;;;;;;;;;;5126317;28;20032;-64
2022/08/07 09:35:04;;;;;;;8.95;3.25;;;;;;;;;;5126191;28;20038;-64
2022/08/07 09:37:38;;;;;;;4.72;3.00;;;;;;;;;;5125827;28;20028;-64
2022/08/07 09:40:21;;;;;;;6.68;3.55;;;;;;;;;;5110463;28;20046;-64
2022/08/07 09:43:07;;;;;;;5.63;3.35;;;;;;;;;;5125875;28;20101;-63
2022/08/07 09:45:37;;;;;;;4.85;2.92;;;;;;;;;;5109806;28;20023;-63
2022/08/07 09:48:21;;;;;;;6.47;3.42;;;;;;;;;;5110181;28;20051;-63
2022/08/07 09:51:08;;;;;;;5.72;2.92;;;;;;;;;;5125485;28;20506;-64
2022/08/07 09:53:37;;;;;;;7.30;2.92;;;;;;;;;;5101412;28;20539;-65
2022/08/07 09:56:13;;;;;;;5.10;3.00;;;;;;;;;;5112076;28;20028;-62
2022/08/07 09:58:39;;;;;;;6.63;3.25;;;;;;;;;;5095901;28;20020;-63
2022/08/07 10:01:26;;;;;;;4.03;2.58;;;;;;;;;;5096153;28;20024;-63
2022/08/07 10:04:10;;;;;;;4.70;2.65;;;;;;;;;;5096525;28;20479;-64
2022/08/07 10:06:36;;;;;;;5.75;2.80;;;;;;;;;;5095762;28;20052;-63
2022/08/07 10:09:04;;;;;;;4.82;3.00;;;;;;;;;;5096177;28;20101;-63
2022/08/07 10:11:49;;;;;;;5.28;2.83;;;;;;;;;;5111544;28;20150;-63
2022/08/07 10:14:27;;;;;;;5.55;2.65;;;;;;;;;;5111840;28;20100;-63
2022/08/07 10:17:03;;;;;;;9.27;3.30;;;;;;;;;;5111771;28;20468;-63
2022/08/07 10:19:39;;;;;;;4.53;2.92;;;;;;;;;;5111152;28;20507;-63
2022/08/07 10:22:17;;;;;;;5.15;2.47;;;;;;;;;;5111574;28;20031;-63
2022/08/07 10:25:03;;;;;;;7.50;3.20;;;;;;;;;;5095933;28;20047;-63
2022/08/07 10:27:31;;;;;;;5.85;3.28;;;;;;;;;;5095416;28;20028;-62
2022/08/07 10:30:09;;;;;;;5.88;2.58;;;;;;;;;;5096088;28;20099;-63
2022/08/07 10:32:50;;;;;;;4.90;2.65;;;;;;;;;;5095437;28;20073;-63
2022/08/07 10:35:23;;;;;;;3.90;2.45;;;;;;;;;;5095678;28;20052;-64
2022/08/07 10:38:04;;;;;;;5.25;2.70;;;;;;;;;;5111377;28;20388;-63
2022/08/07 10:40:34;;;;;;;5.20;2.47;;;;;;;;;;5095178;28;20025;-64
2022/08/07 10:43:06;;;;;;;4.45;2.83;;;;;;;;;;5111058;28;20600;-63
2022/08/07 10:45:32;;;;;;;3.83;2.38;;;;;;;;;;5095738;28;20075;-63
2022/08/07 10:48:05;;;;;;;3.85;2.47;;;;;;;;;;5095023;28;20024;-63
2022/08/07 10:50:31;;;;;;;3.88;2.38;;;;;;;;;;5095312;28;20435;-66
2022/08/07 10:53:06;;;;;;;4.15;2.42;;;;;;;;;;5095411;28;20353;-64
2022/08/07 10:55:41;;;;;;;4.78;2.60;;;;;;;;;;5095010;28;20020;-64
2022/08/07 10:58:20;;;;;;;4.75;2.63;;;;;;;;;;5095434;28;20024;-64
2022/08/07 11:00:54;;;;;;;4.75;3.05;;;;;;;;;;5094713;28;20032;-64
2022/08/07 11:03:47;;;;;;;4.70;2.90;;;;;;;;;;5095495;28;20056;-64
2022/08/07 11:06:19;;;;;;;4.82;2.85;;;;;;;;;;5085637;28;20496;-64
2022/08/07 11:08:59;;;;;;;4.45;3.03;;;;;;;;;;5094843;28;20024;-64
2022/08/07 11:11:32;;;;;;;5.88;2.80;;;;;;;;;;5110645;28;20024;-65
2022/08/07 11:14:02;;;;;;;4.25;2.83;;;;;;;;;;5094980;28;20081;-64
2022/08/07 11:16:33;;;;;;;5.50;3.35;;;;;;;;;;5110245;28;20016;-64
2022/08/07 11:19:06;;;;;;;5.20;3.50;;;;;;;;;;5095231;28;20077;-64
2022/08/07 11:21:35;;;;;;;6.88;3.28;;;;;;;;;;5094662;28;20058;-64
2022/08/07 11:24:01;;;;;;;8.52;3.38;;;;;;;;;;5094426;28;20085;-64
2022/08/07 11:26:39;;;;;;;4.88;3.20;;;;;;;;;;5110261;28;20480;-64
2022/08/07 11:29:07;;;;;;;6.32;3.70;;;;;;;;;;5094302;28;20028;-64
2022/08/07 11:31:53;;;;;;;7.00;3.70;;;;;;;;;;5110272;28;20026;-64
2022/08/07 11:34:38;;;;;;;5.60;3.67;;;;;;;;;;5094768;28;20030;-64
2022/08/07 11:37:33;;;;;;;7.95;3.83;;;;;;;;;;5094396;28;20024;-64
2022/08/07 11:40:05;;;;;;;6.10;4.03;;;;;;;;;;5110326;28;20024;-64
2022/08/07 11:42:31;;;;;;;;;;;;;;;;;;5094661;28;20048;-64
2022/08/07 11:45:13;;;;;;;7.60;4.40;;;;;;;;;;5094007;28;20283;-64
2022/08/07 11:48:05;;;;;;;9.55;4.13;;;;;;;;;;5109913;28;20030;-64
2022/08/07 11:50:54;;;;;;;5.93;4.20;;;;;;;;;;5085542;28;20036;-64
2022/08/07 11:53:33;;;;;;;9.02;4.38;;;;;;;;;;5109924;28;20016;-64
2022/08/07 11:55:59;;;;;;;7.10;3.95;;;;;;;;;;5094428;28;20479;-65
2022/08/07 11:58:25;;;;;;;6.25;3.97;;;;;;;;;;5109475;28;20020;-64
2022/08/07 12:00:57;;;;;;;7.13;3.90;;;;;;;;;;5109759;28;20031;-64
2022/08/07 12:03:50;;;;;;;9.52;4.15;;;;;;;;;;5094149;28;20499;-63
2022/08/07 12:06:28;;;;;;;5.60;3.60;;;;;;;;;;5090584;28;20054;-63
2022/08/07 12:09:13;;;;;;;4.43;3.22;;;;;;;;;;5109772;28;20397;-63
2022/08/07 12:11:42;;;;;;;4.68;3.13;;;;;;;;;;5109249;28;20054;-63
2022/08/07 12:14:19;;;;;;;6.43;3.08;;;;;;;;;;5109301;28;20016;-64
2022/08/07 12:16:48;;;;;;;6.20;3.13;;;;;;;;;;5093749;28;20028;-65
2022/08/07 12:19:17;;;;;;;6.07;3.72;;;;;;;;;;5093417;28;20027;-63
2022/08/07 12:22:04;;;;;;;5.15;3.10;;;;;;;;;;5093625;28;20395;-63
2022/08/07 12:24:36;;;;;;;5.13;3.53;;;;;;;;;;5109382;28;20111;-63
2022/08/07 12:27:07;;;;;;;6.78;3.67;;;;;;;;;;5093395;28;20107;-63
2022/08/07 12:29:37;;;;;;;5.75;3.88;;;;;;;;;;5093638;28;20495;-63
2022/08/07 12:32:24;;;;;;;8.85;4.03;;;;;;;;;;5109297;28;20032;-63
2022/08/07 12:34:50;;;;;;;4.97;3.28;;;;;;;;;;5085115;28;20114;-64
2022/08/07 12:37:18;;;;;;;6.40;4.00;;;;;;;;;;5093560;28;20028;-64
2022/08/07 12:39:46;;;;;;;6.18;3.30;;;;;;;;;;5093156;28;20437;-64
2022/08/07 12:42:12;;;;;;;8.15;4.47;;;;;;;;;;5093233;28;20047;-64
2022/08/07 12:44:40;;;;;;;6.15;3.47;;;;;;;;;;5093616;28;20169;-66
2022/08/07 12:47:15;;;;;;;8.15;3.90;;;;;;;;;;5093050;28;20051;-63
2022/08/07 12:49:49;;;;;;;5.72;3.28;;;;;;;;;;5093464;28;20031;-63
2022/08/07 12:52:19;;;;;;;5.75;3.63;;;;;;;;;;5109279;28;20036;-64
2022/08/07 12:55:21;;;;;;;5.95;3.67;;;;;;;;;;5092985;28;20099;-64
2022/08/07 12:57:48;;;;;;;5.28;3.45;;;;;;;;;;5054305;28;20508;-64
2022/08/07 13:00:14;;;;;;;5.15;3.35;;;;;;;;;;5088918;28;20059;-64
2022/08/07 13:03:07;;;;;;;6.13;4.22;;;;;;;;;;5092849;28;20358;-64
2022/08/07 13:05:53;;;;;;;5.78;3.47;;;;;;;;;;5109099;28;20441;-64
2022/08/07 13:08:22;;;;;;;6.97;3.92;;;;;;;;;;5093030;28;20103;-63
2022/08/07 13:11:07;;;;;;;7.53;3.72;;;;;;;;;;5093306;28;20047;-64
2022/08/07 13:13:44;;;;;;;4.38;3.03;;;;;;;;;;5093248;28;20020;-64
2022/08/07 13:16:29;;;;;;;5.63;2.90;;;;;;;;;;5092850;28;20073;-64
2022/08/07 13:19:14;;;;;;;4.25;2.88;;;;;;;;;;5093133;28;20028;-64
2022/08/07 13:21:43;;;;;;;4.63;2.83;;;;;;;;;;5092623;28;20539;-64
2022/08/07 13:24:15;;;;;;;4.82;3.22;;;;;;;;;;5108894;28;20032;-64
2022/08/07 13:26:53;;;;;;;5.28;3.17;;;;;;;;;;5108734;28;20357;-64
2022/08/07 13:29:19;;;;;;;5.82;3.42;;;;;;;;;;5095149;28;20031;-64
2022/08/07 13:31:49;;;;;;;5.97;3.47;;;;;;;;;;5097017;28;20024;-63
2022/08/07 13:34:26;;;;;;;5.53;3.13;;;;;;;;;;5096851;28;20031;-64
2022/08/07 13:36:57;;;;;;;8.95;3.33;;;;;;;;;;5096550;28;20101;-64
2022/08/07 13:39:49;;;;;;;7.37;3.80;;;;;;;;;;5097394;28;20042;-63
2022/08/07 13:42:16;;;;;;;6.45;3.35;;;;;;;;;;5095426;28;20324;-63
2022/08/07 13:44:43;;;;;;;7.32;3.70;;;;;;;;;;5112063;28;20020;-63
2022/08/07 13:47:12;;;;;;;5.25;3.28;;;;;;;;;;5112379;28;20485;-63
2022/08/07 13:49:42;;;;;;;5.90;3.05;;;;;;;;;;5096211;28;20020;-63
2022/08/07 13:52:08;;;;;;;5.90;3.55;;;;;;;;;;5096678;28;20048;-63
2022/08/07 13:54:35;;;;;;;5.85;3.28;;;;;;;;;;5112033;28;20024;-64
2022/08/07 13:57:07;;;;;;;6.05;3.10;;;;;;;;;;5111751;28;20028;-64
2022/08/07 13:59:33;;;;;;;5.05;2.92;;;;;;;;;;5096493;28;20020;-64
2022/08/07 14:02:06;;;;;;;6.50;3.20;;;;;;;;;;5096578;28;20395;-63
2022/08/07 14:04:34;;;;;;;5.05;3.05;;;;;;;;;;5096028;28;20016;-63
2022/08/07 14:07:04;;;;;;;7.47;3.50;;;;;;;;;;5096421;28;20111;-62
2022/08/07 14:09:32;;;;;;;6.88;4.10;;;;;;;;;;5096227;28;20020;-62
2022/08/07 14:12:01;;;;;;;7.45;3.70;;;;;;;;;;5095717;28;20016;-63
2022/08/07 14:14:30;;;;;;;7.90;4.78;;;;;;;;;;5096221;28;20017;-63
2022/08/07 14:16:58;;;;;;;6.38;3.95;;;;;;;;;;5095986;28;20021;-62
2022/08/07 14:19:48;;;;;;;6.35;3.33;;;;;;;;;;5095571;28;20464;-63
2022/08/07 14:22:21;;;;;;;6.15;3.65;;;;;;;;;;5089179;28;20051;-63
2022/08/07 14:24:52;;;;;;;7.03;3.97;;;;;;;;;;5095786;28;20023;-63
2022/08/07 14:27:24;;;;;;;7.30;3.70;;;;;;;;;;5096154;28;20101;-63
2022/08/07 14:29:53;;;;;;;5.80;3.53;;;;;;;;;;5095858;28;20020;-63
2022/08/07 14:32:20;;;;;;;6.43;3.50;;;;;;;;;;5110966;28;20058;-63
2022/08/07 14:34:48;;;;;;;5.85;3.30;;;;;;;;;;5095738;28;20051;-62
2022/08/07 14:37:16;;;;;;;5.82;3.47;;;;;;;;;;5096054;28;20098;-65
2022/08/07 14:39:43;;;;;;;7.85;4.95;;;;;;;;;;5095260;28;20026;-64
2022/08/07 14:42:11;;;;;;;6.05;3.90;;;;;;;;;;5095281;28;20044;-62
2022/08/07 14:44:39;;;;;;;5.93;3.92;;;;;;;;;;5111215;28;20031;-62
2022/08/07 14:47:06;;;;;;;8.32;4.55;;;;;;;;;;5110791;28;20027;-63
2022/08/07 14:49:34;;;;;;;7.15;4.03;;;;;;;;;;5095314;28;20023;-64
2022/08/07 14:52:02;;;;;;;6.55;3.70;;;;;;;;;;5095340;28;20103;-63
2022/08/07 14:54:29;;;;;;;6.10;3.53;;;;;;;;;;5110664;28;20070;-65
2022/08/07 14:56:57;;;;;;;5.47;3.70;;;;;;;;;;5095319;28;20069;-64
2022/08/07 14:59:24;;;;;;;6.40;3.90;;;;;;;;;;5095232;28;20082;-63
2022/08/07 15:01:50;;;;;;;5.18;3.42;;;;;;;;;;5094787;28;20081;-63
2022/08/07 15:04:16;;;;;;;7.20;3.88;;;;;;;;;;5095414;28;20415;-63
2022/08/07 15:06:44;;;;;;;7.25;4.32;;;;;;;;;;5095093;28;20418;-63
2022/08/07 15:09:12;;;;;;;7.80;3.38;;;;;;;;;;5110295;28;20020;-63
2022/08/07 15:11:40;;;;;;;6.22;3.85;;;;;;;;;;5095025;28;20024;-63
2022/08/07 15:14:08;;;;;;;6.47;3.95;;;;;;;;;;5110162;28;20024;-63
2022/08/07 15:16:38;;;;;;;7.28;4.43;;;;;;;;;;5110603;28;20032;-63
2022/08/07 15:19:09;;;;;;;7.78;3.88;;;;;;;;;;5110470;28;20024;-63
2022/08/07 15:21:36;;;;;;;8.93;3.33;;;;;;;;;;5094361;28;20476;-63
2022/08/07 15:24:09;;;;;;;9.95;3.67;;;;;;;;;;5094796;28;20039;-63
2022/08/07 15:26:45;;;;;;;5.57;3.30;;;;;;;;;;5094668;28;20115;-63
2022/08/07 15:29:13;;;;;;;6.05;3.80;;;;;;;;;;5094252;28;20047;-63
2022/08/07 15:31:40;;;;;;;6.47;3.45;;;;;;;;;;5094551;28;20415;-63
2022/08/07 15:34:07;;;;;;;5.25;3.25;;;;;;;;;;5094574;28;20103;-63
2022/08/07 15:36:34;;;;;;;5.70;3.55;;;;;;;;;;5094247;28;20472;-65
2022/08/07 15:39:09;;;;;;;5.10;2.83;;;;;;;;;;5094519;28;20027;-64
2022/08/07 15:41:38;;;;;;;4.72;3.13;;;;;;;;;;5109817;28;20051;-63
2022/08/07 15:44:06;;;;;;;5.85;3.35;;;;;;;;;;5094040;28;20026;-64
2022/08/07 15:46:33;;;;;;;4.95;3.00;;;;;;;;;;5094578;28;20020;-63
2022/08/07 15:49:02;;;;;;;4.22;3.00;;;;;;;;;;5094385;28;20099;-63
2022/08/07 15:51:28;;;;;;;6.60;3.22;;;;;;;;;;5109015;28;20020;-62
2022/08/07 15:53:56;;;;;;;4.78;3.15;;;;;;;;;;5109905;28;20468;-63
2022/08/07 15:56:29;;;;;;;4.97;2.85;;;;;;;;;;5093780;28;20035;-63
2022/08/07 15:58:58;;;;;;;5.65;3.70;;;;;;;;;;5094248;28;20017;-64
2022/08/07 16:01:29;;;;;;;5.15;3.58;;;;;;;;;;5094281;28;20143;-64
2022/08/07 16:03:58;;;;;;;8.27;3.88;;;;;;;;;;5093664;28;20028;-64
2022/08/07 16:06:27;;;;;;;6.57;3.42;;;;;;;;;;5094030;28;20434;-63
2022/08/07 16:08:57;;;;;;;5.60;3.20;;;;;;;;;;5093946;28;20028;-63
2022/08/07 16:11:33;;;;;;;6.25;3.70;;;;;;;;;;5109109;28;20016;-62
2022/08/07 16:14:08;;;;;;;5.50;3.70;;;;;;;;;;5093842;28;20099;-63
2022/08/07 16:16:53;;;;;;;5.93;3.75;;;;;;;;;;5093915;28;20384;-64
2022/08/07 16:19:19;;;;;;;5.68;3.22;;;;;;;;;;5109050;28;20020;-62
2022/08/07 16:21:45;;;;;;;4.80;3.17;;;;;;;;;;5093729;28;20027;-62
2022/08/07 16:24:18;;;;;;;6.05;3.22;;;;;;;;;;5109424;28;20084;-63
2022/08/07 16:26:47;;;;;;;5.38;2.92;;;;;;;;;;5093698;28;20016;-64